createdAt,value
2018-08-04T00:04:00.126Z,26.38
2018-08-04T00:09:06.940Z,26.28
2018-08-04T00:14:10.301Z,26.22
2018-08-04T00:19:13.317Z,26.04
2018-08-04T00:24:16.345Z,25.82
2018-08-04T00:29:19.374Z,25.64
2018-08-04T00:34:22.372Z,25.51
2018-08-04T00:39:25.366Z,25.45
2018-08-04T00:44:28.397Z,25.30
2018-08-04T00:49:31.373Z,25.27
2018-08-04T00:54:34.381Z,25.20
2018-08-04T00:59:37.360Z,25.18
2018-08-04T01:04:40.840Z,25.16
2018-08-04T01:09:44.368Z,25.07
2018-08-04T01:14:47.961Z,24.98
2018-08-04T01:19:51.426Z,24.95
2018-08-04T01:24:54.672Z,24.84
2018-08-04T01:29:57.713Z,24.87
2018-08-04T01:35:00.733Z,24.83
2018-08-04T01:40:05.168Z,24.96
2018-08-04T01:45:08.253Z,24.89
2018-08-04T01:50:11.294Z,24.64
2018-08-04T01:55:14.293Z,24.53
2018-08-04T02:00:17.358Z,24.65
2018-08-04T02:05:20.346Z,24.60
2018-08-04T02:10:23.329Z,24.71
2018-08-04T02:15:26.344Z,24.72
2018-08-04T02:20:29.378Z,24.63
2018-08-04T02:25:32.538Z,24.64
2018-08-04T02:30:35.570Z,24.54
2018-08-04T02:35:38.547Z,24.30
2018-08-04T02:40:41.586Z,24.19
2018-08-04T02:45:44.601Z,24.20
2018-08-04T02:50:47.646Z,24.25
2018-08-04T02:55:50.714Z,24.18
2018-08-04T03:00:53.770Z,24.32
2018-08-04T03:05:56.831Z,24.27
2018-08-04T03:10:59.880Z,24.33
2018-08-04T03:16:02.950Z,24.31
2018-08-04T03:21:06.058Z,24.47
2018-08-04T03:26:09.102Z,24.56
2018-08-04T03:31:12.162Z,24.49
2018-08-04T03:36:15.223Z,24.34
2018-08-04T03:41:18.285Z,24.24
2018-08-04T03:46:21.355Z,24.18
2018-08-04T03:51:24.422Z,24.09
2018-08-04T03:56:27.522Z,24.06
2018-08-04T04:01:30.545Z,23.88
2018-08-04T04:06:33.680Z,23.81
2018-08-04T04:11:36.687Z,23.93
2018-08-04T04:16:39.844Z,23.95
2018-08-04T04:21:42.864Z,24.00
2018-08-04T04:26:45.922Z,24.16
2018-08-04T04:31:48.945Z,24.30
2018-08-04T04:36:52.029Z,24.47
2018-08-04T04:41:55.093Z,24.72
2018-08-04T04:46:58.114Z,24.95
2018-08-04T04:52:01.180Z,25.01
2018-08-04T04:57:04.556Z,24.83
2018-08-04T05:02:07.644Z,24.95
2018-08-04T05:07:10.634Z,25.11
2018-08-04T05:12:13.720Z,25.34
2018-08-04T05:17:16.762Z,25.41
2018-08-04T05:22:19.810Z,25.42
2018-08-04T05:27:22.856Z,25.34
2018-08-04T05:32:26.940Z,25.32
2018-08-04T05:37:30.064Z,25.16
2018-08-04T05:42:33.140Z,25.08
2018-08-04T05:47:36.182Z,25.40
2018-08-04T05:52:39.216Z,25.44
2018-08-04T05:57:42.309Z,25.60
2018-08-04T06:02:45.364Z,25.55
2018-08-04T06:07:48.369Z,25.87
2018-08-04T06:12:51.409Z,26.04
2018-08-04T06:17:54.443Z,26.25
2018-08-04T06:22:57.444Z,26.58
2018-08-04T06:28:00.478Z,26.85
2018-08-04T06:33:03.518Z,26.97
2018-08-04T06:38:06.656Z,27.08
2018-08-04T06:43:09.682Z,27.21
2018-08-04T06:48:12.704Z,27.21
2018-08-04T06:53:15.744Z,27.39
2018-08-04T06:58:19.227Z,27.59
2018-08-04T07:03:22.226Z,27.59
2018-08-04T07:08:25.295Z,27.68
2018-08-04T07:13:28.327Z,27.61
2018-08-04T07:18:31.321Z,28.15
2018-08-04T07:23:34.325Z,28.17
2018-08-04T07:28:37.324Z,28.50
2018-08-04T07:33:40.354Z,28.89
2018-08-04T07:38:43.406Z,29.08
2018-08-04T07:43:46.568Z,29.01
2018-08-04T07:48:49.650Z,28.96
2018-08-04T07:53:52.698Z,28.68
2018-08-04T07:58:55.807Z,28.66
2018-08-04T08:03:58.856Z,28.56
2018-08-04T08:09:02.094Z,28.73
2018-08-04T08:14:05.302Z,28.79
2018-08-04T08:19:08.781Z,28.70
2018-08-04T08:24:11.897Z,28.69
2018-08-04T08:29:15.022Z,28.88
2018-08-04T08:34:18.097Z,28.96
2018-08-04T08:39:21.177Z,28.80
2018-08-04T08:44:24.385Z,28.96
2018-08-04T08:49:27.462Z,29.21
2018-08-04T08:54:30.536Z,29.50
2018-08-04T08:59:33.605Z,29.70
2018-08-04T09:04:36.665Z,29.98
2018-08-04T09:09:39.738Z,29.81
2018-08-04T09:14:42.786Z,29.83
2018-08-04T09:19:45.814Z,30.00
2018-08-04T09:24:48.838Z,30.14
2018-08-04T09:29:51.839Z,30.33
2018-08-04T09:34:54.963Z,30.39
2018-08-04T09:39:57.990Z,30.66
2018-08-04T09:45:01.107Z,30.58
2018-08-04T09:50:05.132Z,30.89
2018-08-04T09:55:09.155Z,30.88
2018-08-04T10:01:20.391Z,30.85
2018-08-04T10:06:23.464Z,30.69
2018-08-04T10:11:26.599Z,30.92
2018-08-04T10:16:29.573Z,31.39
2018-08-04T10:21:32.635Z,31.67
2018-08-04T10:26:35.803Z,31.74
2018-08-04T10:31:38.826Z,31.85
2018-08-04T10:36:42.604Z,32.02
2018-08-04T10:41:45.710Z,32.33
2018-08-04T10:46:48.767Z,32.12
2018-08-04T10:51:51.757Z,32.40
2018-08-04T10:56:54.964Z,32.47
2018-08-04T11:01:58.127Z,32.47
2018-08-04T11:07:01.346Z,32.49
2018-08-04T11:12:04.945Z,32.78
2018-08-04T11:17:08.364Z,32.72
2018-08-04T11:22:12.184Z,32.64
2018-08-04T11:27:17.254Z,32.70
2018-08-04T11:32:22.938Z,32.87
2018-08-04T11:37:26.778Z,32.63
2018-08-04T11:42:30.572Z,32.59
2018-08-04T11:47:34.225Z,32.93
2018-08-04T11:52:37.610Z,33.17
2018-08-04T11:57:40.653Z,33.57
2018-08-04T12:02:43.740Z,33.57
2018-08-04T12:07:46.911Z,33.70
2018-08-04T12:12:49.974Z,33.89
2018-08-04T12:17:53.134Z,33.81
2018-08-04T12:22:56.164Z,33.65
2018-08-04T12:27:59.213Z,33.66
2018-08-04T12:33:02.300Z,34.14
2018-08-04T12:38:05.409Z,34.27
2018-08-04T12:43:08.460Z,34.30
2018-08-04T12:48:11.502Z,34.22
2018-08-04T12:53:14.658Z,34.49
2018-08-04T12:58:17.697Z,34.36
2018-08-04T13:03:21.046Z,34.46
2018-08-04T13:08:24.185Z,34.64
2018-08-04T13:13:27.317Z,34.68
2018-08-04T13:18:30.419Z,35.27
2018-08-04T13:23:33.465Z,35.59
2018-08-04T13:28:36.578Z,35.93
2018-08-04T13:33:39.639Z,36.24
2018-08-04T13:38:44.655Z,36.18
2018-08-04T13:43:49.419Z,35.48
2018-08-04T13:48:53.251Z,35.58
2018-08-04T13:53:56.486Z,35.73
2018-08-04T13:58:59.523Z,36.26
2018-08-04T14:04:02.726Z,35.92
2018-08-04T14:09:08.194Z,35.98
2018-08-04T14:14:11.365Z,35.18
2018-08-04T14:19:14.755Z,35.04
2018-08-04T14:24:17.896Z,35.39
2018-08-04T14:29:21.127Z,35.86
2018-08-04T14:34:24.156Z,35.81
2018-08-04T14:39:27.249Z,35.61
2018-08-04T14:44:30.338Z,35.50
2018-08-04T14:49:33.522Z,35.28
2018-08-04T14:54:36.651Z,35.40
2018-08-04T14:59:39.860Z,34.94
2018-08-04T15:04:43.091Z,34.69
2018-08-04T15:09:46.029Z,34.57
2018-08-04T15:14:49.057Z,34.68
2018-08-04T15:19:53.210Z,34.68
2018-08-04T15:24:56.399Z,35.16
2018-08-04T15:29:59.641Z,35.31
2018-08-04T15:35:02.741Z,35.14
2018-08-04T15:40:05.817Z,34.84
2018-08-04T15:45:09.284Z,34.70
2018-08-04T15:50:12.618Z,34.73
2018-08-04T15:55:15.736Z,35.29
2018-08-04T16:00:19.025Z,35.20
2018-08-04T16:05:22.463Z,35.19
2018-08-04T16:10:25.604Z,34.71
2018-08-04T16:15:28.878Z,34.27
2018-08-04T16:20:32.113Z,34.69
2018-08-04T16:25:35.332Z,34.58
2018-08-04T16:30:38.601Z,34.07
2018-08-04T16:35:41.913Z,33.67
2018-08-04T16:40:45.341Z,33.59
2018-08-04T16:45:48.722Z,33.73
2018-08-04T16:50:51.783Z,33.72
2018-08-04T16:55:54.996Z,33.33
2018-08-04T17:00:58.055Z,33.40
2018-08-04T17:06:01.167Z,33.56
2018-08-04T17:11:04.278Z,33.33
2018-08-04T17:16:07.335Z,32.88
2018-08-04T17:21:10.342Z,32.60
2018-08-04T17:26:13.383Z,32.55
2018-08-04T17:31:16.756Z,32.63
2018-08-04T17:36:20.125Z,32.42
2018-08-04T17:41:23.153Z,32.25
2018-08-04T17:46:26.402Z,32.16
2018-08-04T17:51:30.432Z,31.97
2018-08-04T17:56:33.401Z,31.80
2018-08-04T18:01:36.493Z,31.57
2018-08-04T18:06:39.802Z,31.32
2018-08-04T18:11:42.810Z,31.05
2018-08-04T18:16:45.894Z,30.97
2018-08-04T18:21:48.963Z,30.81
2018-08-04T18:26:52.310Z,30.51
2018-08-04T18:31:55.404Z,30.44
2018-08-04T18:36:58.513Z,30.03
2018-08-04T18:42:01.590Z,29.87
2018-08-04T18:47:04.605Z,29.57
2018-08-04T18:52:07.654Z,29.15
2018-08-04T18:57:10.749Z,29.24
2018-08-04T19:02:13.852Z,29.04
2018-08-04T19:07:17.750Z,28.98
2018-08-04T19:12:20.803Z,28.82
2018-08-04T19:17:23.865Z,28.64
2018-08-04T19:22:26.916Z,28.43
2018-08-04T19:27:30.060Z,28.27
2018-08-04T19:32:33.188Z,28.07
2018-08-04T19:37:36.265Z,27.87
2018-08-04T19:42:39.305Z,27.80
2018-08-04T19:47:42.440Z,27.70
2018-08-04T19:52:45.544Z,27.62
2018-08-04T19:57:48.654Z,27.57
2018-08-04T20:02:51.915Z,27.36
2018-08-04T20:07:55.019Z,27.30
2018-08-04T20:12:58.010Z,27.23
2018-08-04T20:18:01.203Z,27.10
2018-08-04T20:23:04.400Z,26.89
2018-08-04T20:28:07.450Z,26.78
2018-08-04T20:33:10.541Z,26.79
2018-08-04T20:38:13.624Z,26.65
2018-08-04T20:43:16.674Z,26.47
2018-08-04T20:48:19.746Z,26.32
2018-08-04T20:53:22.841Z,26.16
2018-08-04T20:58:26.917Z,26.06
2018-08-04T21:03:29.994Z,26.02
2018-08-04T21:08:33.031Z,26.04
2018-08-04T21:13:36.251Z,25.88
2018-08-04T21:18:39.287Z,25.66
2018-08-04T21:23:42.321Z,25.59
2018-08-04T21:28:45.405Z,25.57
2018-08-04T21:33:48.453Z,25.56
2018-08-04T21:38:51.541Z,25.39
2018-08-04T21:43:54.611Z,25.30
2018-08-04T21:48:57.658Z,25.22
2018-08-04T21:54:00.695Z,25.13
2018-08-04T21:59:03.773Z,25.04
2018-08-04T22:04:06.854Z,24.92
2018-08-04T22:09:21.574Z,25.02
2018-08-04T22:14:24.566Z,24.92
2018-08-04T22:19:27.626Z,24.88
2018-08-04T22:24:31.151Z,24.76
2018-08-04T22:29:34.271Z,24.67
2018-08-04T22:34:37.309Z,24.71
2018-08-04T22:39:40.449Z,24.61
2018-08-04T22:45:02.943Z,24.50
2018-08-04T22:50:06.013Z,24.35
2018-08-04T22:55:09.058Z,24.34
2018-08-04T23:00:12.146Z,24.24
2018-08-04T23:05:15.190Z,24.28
2018-08-04T23:10:18.250Z,24.13
2018-08-04T23:15:21.381Z,23.97
2018-08-04T23:20:24.445Z,23.98
2018-08-04T23:25:27.525Z,23.85
2018-08-04T23:30:30.597Z,23.83
2018-08-04T23:35:33.682Z,23.87
2018-08-04T23:40:36.724Z,23.81
2018-08-04T23:45:39.794Z,23.76
2018-08-04T23:50:42.853Z,23.90
2018-08-04T23:55:45.926Z,23.88
